Aeroporto :
LOGIN :

Iscrizione | Disclaimer

   EN    FR    IT 

 










Sommario :    VFR   VFR Marginale   IFR   IFR Intensivo   IFR Molto Intensivo
Visibilità : 
Base nubi : 
>= 8 km
>= 3000ft
5 / 8 km
1000 / 3000 ft
1500m / 5 km
500 / 1000 ft
800 / 1500m
200 / 500 ft
< 800m
< 200 ft
Simboli :   Temporali  Nebbia  Neve Forte  Precipitazioni Forti  Vento > 20 kt
SIGMETs :   Varie  Temporali  Ghiacco  Turbolenza  Onda orograficha  Ceneri Vulcaniche






- Altitudine del aeroporto : 1041 ft
- Codice IATA : XMF


LFSM - Montbéliard-Courcelles

ULTIMO METAR :
  • 201600Z AUTO 02005KT 350V060 9999 ///CB 22/12 Q1007

METARs OBSOLETI :
  • 201530Z AUTO 02006KT 9999 VCTS ///CB 21/12 Q1007
  • 201500Z AUTO 05007KT 9999 ///CB 21/12 Q1007
  • 201430Z AUTO 04008KT CAVOK 22/12 Q1007
  • 201400Z AUTO 05007KT 350V080 9999 FEW048 23/13 Q1007
  • 201330Z AUTO 04008KT 360V090 CAVOK 23/12 Q1008
  • 201300Z AUTO 07007KT 020V110 CAVOK 22/13 Q1008
  • 201230Z AUTO 05006KT 360V090 CAVOK 22/11 Q1009
  • 201200Z AUTO VRB05KT CAVOK 22/12 Q1009
  • 201130Z AUTO 05008KT 020V110 //// // NSC 22/11 Q1009

TAF N/A



MetMap, La meteo Aeronautica in un colpo d'occhio ! - Copyright ORBIFLY Dicembre 2007 - Disclaimer

ORBIFLY MET'MAP TEAM :

Programmazione e sviluppo : Alexandra Zaïnal
Concezione : Baudouin d'Aumeries
Supporto tecnico e logistico : Manuel Goepfert
Aiuto : Marc-Olivier Méhu
Aiuto per la traduzione : Arnaldo La Scala




FONTI E CREDITI :

   NOAA